Time;durP1;ratioP1;P1;durP2;ratioP2;P2;SDS_P1;SDS_P2;PMS_P1;PMS_P2;Temp;Humidity;BMP_temperature;BMP_pressure;BME280_temperature;BME280_humidity;BME280_pressure;Samples;Min_cycle;Max_cycle;Signal;HPM_P1;HPM_P2
2023/12/31 00:02:20;;;;;;;;;;;;;;;;;;5086198;28;19932;-68
2023/12/31 00:04:46;;;;;;;;;;;;;;;;;;5087322;28;19943;-68
2023/12/31 00:07:12;;;;;;;;;;;;;;;;;;5092178;28;19920;-69
2023/12/31 00:09:38;;;;;;;;;;;;;;;;;;5088142;28;19932;-68
2023/12/31 00:12:04;;;;;;;;;;;;;;;;;;5092187;28;19935;-68
2023/12/31 00:14:30;;;;;;;;;;;;;;;;;;5089056;28;19920;-68
2023/12/31 00:16:56;;;;;;;;;;;;;;;;;;5092177;28;20247;-68
2023/12/31 00:19:22;;;;;;;;;;;;;;;;;;5093807;28;19924;-67
2023/12/31 00:21:48;;;;;;;;;;;;;;;;;;5094137;28;19928;-68
2023/12/31 00:24:14;;;;;;;;;;;;;;;;;;5091982;28;19927;-67
2023/12/31 00:26:39;;;;;;;;;;;;;;;;;;5094783;28;19931;-67
2023/12/31 00:29:05;;;;;;;;;;;;;;;;;;5092866;28;19928;-67
2023/12/31 00:31:31;;;;;;;;;;;;;;;;;;5093333;28;20479;-66
2023/12/31 00:33:57;;;;;;;;;;;;;;;;;;5091407;28;19927;-67
2023/12/31 00:36:23;;;;;;;;;;;;;;;;;;5094114;28;20014;-67
2023/12/31 00:38:49;;;;;;;;;;;;;;;;;;5089545;28;19928;-68
2023/12/31 00:41:15;;;;;;;;;;;;;;;;;;5092823;28;19931;-68
2023/12/31 00:43:41;;;;;;;;;;;;;;;;;;5096116;28;19920;-67
2023/12/31 00:46:07;;;;;;;;;;;;;;;;;;5093043;28;19920;-66
2023/12/31 00:48:33;;;;;;;;;;;;;;;;;;5102478;28;20047;-67
2023/12/31 00:50:59;;;;;;;;;;;;;;;;;;5092092;28;19928;-67
2023/12/31 00:53:24;;;;;;;;;;;;;;;;;;5094640;28;20455;-66
2023/12/31 00:55:50;;;;;;;;;;;;;;;;;;5089730;28;19920;-67
2023/12/31 00:58:18;;;;;;;;;;;;;;;;;;5096101;28;19924;-67
2023/12/31 01:00:44;;;;;;;;;;;;;;;;;;5091858;28;20336;-68
2023/12/31 01:03:10;;;;;;;;;;;;;;;;;;5097240;28;20010;-67
2023/12/31 01:05:36;;;;;;;;;;;;;;;;;;5095193;28;19928;-67
2023/12/31 01:08:01;;;;;;;;;;;;;;;;;;5096709;28;20285;-68
2023/12/31 01:10:27;;;;;;;;;;;;;;;;;;5089410;28;19923;-68
2023/12/31 01:12:54;;;;;;;;;;;;;;;;;;5092656;28;19927;-68
2023/12/31 01:15:20;;;;;;;;;;;;;;;;;;5095078;28;20629;-69
2023/12/31 01:17:45;;;;;;;;;;;;;;;;;;5091115;28;19920;-68
2023/12/31 01:20:11;;;;;;;;;;;;;;;;;;5088769;28;19920;-68
2023/12/31 01:22:37;;;;;;;;;;;;;;;;;;5092725;28;19981;-69
2023/12/31 01:25:03;;;;;;;;;;;;;;;;;;5093787;28;19927;-68
2023/12/31 01:27:29;;;;;;;;;;;;;;;;;;5101927;28;20022;-67
2023/12/31 01:29:55;;;;;;;;;;;;;;;;;;5090027;28;20370;-68
2023/12/31 01:32:21;;;;;;;;;;;;;;;;;;5080186;28;19930;-67
2023/12/31 01:34:47;;;;;;;;;;;;;;;;;;5089306;28;19927;-68
2023/12/31 01:37:13;;;;;;;;;;;;;;;;;;5086575;28;19924;-68
2023/12/31 01:39:39;;;;;;;;;;;;;;;;;;5084465;28;20464;-68
2023/12/31 01:42:04;;;;;;;;;;;;;;;;;;5090288;28;19927;-67
2023/12/31 01:44:30;;;;;;;;;;;;;;;;;;5087013;28;19966;-67
2023/12/31 01:46:56;;;;;;;;;;;;;;;;;;5084078;28;19996;-66
2023/12/31 01:49:22;;;;;;;;;;;;;;;;;;5087673;28;19932;-67
2023/12/31 01:51:48;;;;;;;;;;;;;;;;;;5088373;28;20277;-68
2023/12/31 01:54:14;;;;;;;;;;;;;;;;;;5091496;28;19921;-67
2023/12/31 01:56:40;;;;;;;;;;;;;;;;;;5088864;28;20094;-67
2023/12/31 01:59:06;;;;;;;;;;;;;;;;;;5086839;28;20892;-68
2023/12/31 02:01:32;;;;;;;;;;;;;;;;;;5090906;28;19920;-68
2023/12/31 02:03:58;;;;;;;;;;;;;;;;;;5089509;28;20053;-67
2023/12/31 02:06:24;;;;;;;;;;;;;;;;;;5091458;28;19920;-68
2023/12/31 02:08:50;;;;;;;;;;;;;;;;;;5088316;28;20005;-68
2023/12/31 02:11:16;;;;;;;;;;;;;;;;;;5088231;28;19967;-67
2023/12/31 02:13:42;;;;;;;;;;;;;;;;;;5089290;28;20011;-68
2023/12/31 02:16:08;;;;;;;;;;;;;;;;;;5091088;28;20065;-68
2023/12/31 02:18:34;;;;;;;;;;;;;;;;;;5084652;28;20014;-70
2023/12/31 02:21:00;;;;;;;;;;;;;;;;;;5083354;28;20486;-70
2023/12/31 02:23:26;;;;;;;;;;;;;;;;;;5082728;28;19932;-70
2023/12/31 02:25:51;;;;;;;;;;;;;;;;;;5083803;28;20270;-70
2023/12/31 02:28:18;;;;;;;;;;;;;;;;;;5088504;28;19935;-70
2023/12/31 02:30:44;;;;;;;;;;;;;;;;;;5086895;28;19927;-70
2023/12/31 02:33:10;;;;;;;;;;;;;;;;;;5083882;28;19921;-69
2023/12/31 02:35:36;;;;;;;;;;;;;;;;;;5084041;28;20285;-70
2023/12/31 02:38:02;;;;;;;;;;;;;;;;;;5082847;28;20408;-70
2023/12/31 02:40:28;;;;;;;;;;;;;;;;;;5067769;28;19920;-70
2023/12/31 02:42:54;;;;;;;;;;;;;;;;;;5087101;28;19921;-70
2023/12/31 02:45:20;;;;;;;;;;;;;;;;;;5087718;28;19950;-69
2023/12/31 02:47:46;;;;;;;;;;;;;;;;;;5087692;28;19928;-69
2023/12/31 02:50:12;;;;;;;;;;;;;;;;;;5086205;28;19931;-69
2023/12/31 02:52:38;;;;;;;;;;;;;;;;;;5084169;28;19928;-70
2023/12/31 02:55:04;;;;;;;;;;;;;;;;;;5079204;28;19924;-69
2023/12/31 02:57:30;;;;;;;;;;;;;;;;;;5088461;28;20404;-70
2023/12/31 02:59:56;;;;;;;;;;;;;;;;;;5089001;28;19920;-70
2023/12/31 03:02:21;;;;;;;;;;;;;;;;;;5087292;28;19943;-70
2023/12/31 03:04:47;;;;;;;;;;;;;;;;;;5088842;28;20015;-69
2023/12/31 03:07:13;;;;;;;;;;;;;;;;;;5086102;28;20417;-70
2023/12/31 03:09:39;;;;;;;;;;;;;;;;;;5081427;28;20015;-70
2023/12/31 03:12:05;;;;;;;;;;;;;;;;;;5084745;28;19928;-69
2023/12/31 03:14:31;;;;;;;;;;;;;;;;;;5078383;28;20342;-69
2023/12/31 03:16:57;;;;;;;;;;;;;;;;;;5089383;28;20014;-69
2023/12/31 03:19:23;;;;;;;;;;;;;;;;;;5090253;28;19920;-70
2023/12/31 03:21:49;;;;;;;;;;;;;;;;;;5085007;28;19988;-70
2023/12/31 03:24:17;;;;;;;;;;;;;;;;;;5084737;28;20343;-69
2023/12/31 03:26:43;;;;;;;;;;;;;;;;;;5084989;28;20397;-70
2023/12/31 03:29:08;;;;;;;;;;;;;;;;;;5084511;28;19924;-70
2023/12/31 03:31:34;;;;;;;;;;;;;;;;;;5084700;28;19928;-70
2023/12/31 03:34:00;;;;;;;;;;;;;;;;;;5086045;28;20380;-70
2023/12/31 03:36:26;;;;;;;;;;;;;;;;;;5085233;28;20011;-69
2023/12/31 03:38:53;;;;;;;;;;;;;;;;;;5087967;28;19921;-70
2023/12/31 03:41:19;;;;;;;;;;;;;;;;;;5088820;28;19928;-69
2023/12/31 03:43:45;;;;;;;;;;;;;;;;;;5088749;28;19920;-70
2023/12/31 03:46:11;;;;;;;;;;;;;;;;;;5073986;28;20579;-69
2023/12/31 03:48:37;;;;;;;;;;;;;;;;;;5087370;28;20097;-70
2023/12/31 03:51:03;;;;;;;;;;;;;;;;;;5094068;28;20404;-69
2023/12/31 03:53:29;;;;;;;;;;;;;;;;;;5099103;28;19960;-69
2023/12/31 03:55:55;;;;;;;;;;;;;;;;;;5094423;28;20010;-70
2023/12/31 03:58:22;;;;;;;;;;;;;;;;;;5095868;28;20081;-69
2023/12/31 04:00:48;;;;;;;;;;;;;;;;;;5094791;27;19951;-71
2023/12/31 04:03:14;;;;;;;;;;;;;;;;;;5088887;28;19920;-68
2023/12/31 04:05:41;;;;;;;;;;;;;;;;;;5093827;28;19924;-69
2023/12/31 04:08:06;;;;;;;;;;;;;;;;;;5093856;28;20006;-69
2023/12/31 04:10:32;;;;;;;;;;;;;;;;;;5088450;28;20007;-69
2023/12/31 04:12:58;;;;;;;;;;;;;;;;;;5086755;28;19924;-70
2023/12/31 04:15:24;;;;;;;;;;;;;;;;;;5096273;28;19924;-70
2023/12/31 04:17:50;;;;;;;;;;;;;;;;;;5093346;28;19943;-70
2023/12/31 04:20:16;;;;;;;;;;;;;;;;;;5092711;28;19945;-69
2023/12/31 04:22:42;;;;;;;;;;;;;;;;;;5097307;28;19970;-69
2023/12/31 04:25:08;;;;;;;;;;;;;;;;;;5089297;28;19920;-71
2023/12/31 04:27:38;;;;;;;;;;;;;;;;;;5092679;28;20015;-70
2023/12/31 04:30:04;;;;;;;;;;;;;;;;;;5092227;28;19982;-68
2023/12/31 04:32:29;;;;;;;;;;;;;;;;;;5074560;28;19960;-69
2023/12/31 04:34:55;;;;;;;;;;;;;;;;;;5092293;28;19963;-71
2023/12/31 04:37:21;;;;;;;;;;;;;;;;;;5093138;28;20289;-70
2023/12/31 04:39:48;;;;;;;;;;;;;;;;;;5093447;28;20150;-70
2023/12/31 04:42:14;;;;;;;;;;;;;;;;;;5089568;28;20277;-70
2023/12/31 04:44:40;;;;;;;;;;;;;;;;;;5088208;28;19927;-70
2023/12/31 04:47:06;;;;;;;;;;;;;;;;;;5092011;28;19924;-70
2023/12/31 04:49:32;;;;;;;;;;;;;;;;;;5096288;28;19924;-70
2023/12/31 04:51:58;;;;;;;;;;;;;;;;;;5094046;28;19920;-70
2023/12/31 04:54:24;;;;;;;;;;;;;;;;;;5088441;28;19930;-69
2023/12/31 04:56:50;;;;;;;;;;;;;;;;;;5088982;28;20392;-70
2023/12/31 04:59:16;;;;;;;;;;;;;;;;;;5087942;28;20002;-70
2023/12/31 05:01:42;;;;;;;;;;;;;;;;;;5090028;28;19928;-69
2023/12/31 05:04:08;;;;;;;;;;;;;;;;;;5088687;28;21117;-69
2023/12/31 05:06:34;;;;;;;;;;;;;;;;;;5094209;28;19963;-70
2023/12/31 05:09:00;;;;;;;;;;;;;;;;;;5090893;28;20015;-69
2023/12/31 05:11:26;;;;;;;;;;;;;;;;;;5090135;28;20042;-70
2023/12/31 05:13:53;;;;;;;;;;;;;;;;;;5089010;28;20462;-70
2023/12/31 05:16:19;;;;;;;;;;;;;;;;;;5085055;28;19947;-70
2023/12/31 05:18:50;;;;;;;;;;;;;;;;;;5093252;28;19960;-70
2023/12/31 05:21:16;;;;;;;;;;;;;;;;;;5089042;28;19954;-70
2023/12/31 05:23:42;;;;;;;;;;;;;;;;;;5091082;28;19989;-68
2023/12/31 05:26:08;;;;;;;;;;;;;;;;;;5087944;28;19935;-70
2023/12/31 05:28:34;;;;;;;;;;;;;;;;;;5088465;28;19931;-70
2023/12/31 05:31:00;;;;;;;;;;;;;;;;;;5085633;28;19950;-70
2023/12/31 05:33:25;;;;;;;;;;;;;;;;;;5091973;28;20365;-69
2023/12/31 05:35:51;;;;;;;;;;;;;;;;;;5092150;28;19920;-70
2023/12/31 05:38:17;;;;;;;;;;;;;;;;;;5095350;28;19920;-70
2023/12/31 05:40:43;;;;;;;;;;;;;;;;;;5092570;28;19924;-70
2023/12/31 05:43:10;;;;;;;;;;;;;;;;;;5089143;28;19931;-69
2023/12/31 05:45:37;;;;;;;;;;;;;;;;;;5084791;28;19927;-70
2023/12/31 05:48:02;;;;;;;;;;;;;;;;;;5091054;28;19942;-70
2023/12/31 05:50:28;;;;;;;;;;;;;;;;;;5093779;28;20353;-70
2023/12/31 05:52:54;;;;;;;;;;;;;;;;;;5092790;28;19927;-70
2023/12/31 05:55:20;;;;;;;;;;;;;;;;;;5091326;28;20058;-69
2023/12/31 05:57:46;;;;;;;;;;;;;;;;;;5089076;28;20384;-69
2023/12/31 06:00:12;;;;;;;;;;;;;;;;;;5087639;28;20422;-69
2023/12/31 06:02:38;;;;;;;;;;;;;;;;;;5084230;28;20010;-69
2023/12/31 06:05:04;;;;;;;;;;;;;;;;;;5092223;28;19924;-70
2023/12/31 06:07:30;;;;;;;;;;;;;;;;;;5090673;28;19927;-70
2023/12/31 06:09:56;;;;;;;;;;;;;;;;;;5091513;28;19924;-69
2023/12/31 06:12:22;;;;;;;;;;;;;;;;;;5089006;28;19928;-69
2023/12/31 06:14:48;;;;;;;;;;;;;;;;;;5085843;28;20013;-69
2023/12/31 06:17:14;;;;;;;;;;;;;;;;;;5088670;28;19920;-69
2023/12/31 06:19:40;;;;;;;;;;;;;;;;;;5089360;28;19920;-69
2023/12/31 06:22:06;;;;;;;;;;;;;;;;;;5091371;28;19923;-69
2023/12/31 06:24:32;;;;;;;;;;;;;;;;;;5092699;28;20376;-70
2023/12/31 06:26:58;;;;;;;;;;;;;;;;;;5086392;28;19920;-69
2023/12/31 06:29:24;;;;;;;;;;;;;;;;;;5089287;28;19931;-70
2023/12/31 06:31:49;;;;;;;;;;;;;;;;;;5085657;28;19935;-71
2023/12/31 06:34:16;;;;;;;;;;;;;;;;;;5088135;28;19924;-69
2023/12/31 06:36:42;;;;;;;;;;;;;;;;;;5087666;28;20260;-70
2023/12/31 06:39:09;;;;;;;;;;;;;;;;;;5094037;28;20003;-68
2023/12/31 06:41:35;;;;;;;;;;;;;;;;;;5090404;28;20289;-69
2023/12/31 06:44:01;;;;;;;;;;;;;;;;;;5071562;28;19924;-70
2023/12/31 06:46:27;;;;;;;;;;;;;;;;;;5086026;28;19966;-70
2023/12/31 06:48:53;;;;;;;;;;;;;;;;;;5088980;28;19984;-70
2023/12/31 06:51:19;;;;;;;;;;;;;;;;;;5086394;28;19928;-71
2023/12/31 06:53:47;;;;;;;;;;;;;;;;;;5087930;28;20224;-69
2023/12/31 06:56:13;;;;;;;;;;;;;;;;;;5085520;28;19920;-70
2023/12/31 06:58:39;;;;;;;;;;;;;;;;;;5088905;28;19924;-70
2023/12/31 07:01:05;;;;;;;;;;;;;;;;;;5081045;28;19935;-69
2023/12/31 07:03:31;;;;;;;;;;;;;;;;;;5087989;28;20011;-70
2023/12/31 07:05:57;;;;;;;;;;;;;;;;;;5085702;28;19931;-70
2023/12/31 07:08:23;;;;;;;;;;;;;;;;;;5090002;28;19920;-70
2023/12/31 07:10:49;;;;;;;;;;;;;;;;;;5089540;28;19994;-69
2023/12/31 07:13:14;;;;;;;;;;;;;;;;;;5081848;28;19970;-70
2023/12/31 07:15:43;;;;;;;;;;;;;;;;;;5083527;28;19935;-70
2023/12/31 07:18:09;;;;;;;;;;;;;;;;;;5089396;28;20010;-70
2023/12/31 07:20:35;;;;;;;;;;;;;;;;;;5090157;28;20038;-70
2023/12/31 07:23:00;;;;;;;;;;;;;;;;;;5088011;28;19928;-70
2023/12/31 07:25:28;;;;;;;;;;;;;;;;;;5087111;28;19920;-69
2023/12/31 07:27:54;;;;;;;;;;;;;;;;;;5085640;28;19985;-70
2023/12/31 07:30:20;;;;;;;;;;;;;;;;;;5089361;28;19928;-70
2023/12/31 07:32:46;;;;;;;;;;;;;;;;;;5088000;28;19978;-70
2023/12/31 07:35:11;;;;;;;;;;;;;;;;;;5089761;28;20481;-70
2023/12/31 07:37:38;;;;;;;;;;;;;;;;;;5089071;28;19924;-69
2023/12/31 07:40:05;;;;;;;;;;;;;;;;;;5086995;28;19931;-70
2023/12/31 07:42:31;;;;;;;;;;;;;;;;;;5091483;28;20365;-69
2023/12/31 07:44:57;;;;;;;;;;;;;;;;;;5087720;28;19920;-70
2023/12/31 07:47:22;;;;;;;;;;;;;;;;;;5088529;28;20057;-70
2023/12/31 07:49:48;;;;;;;;;;;;;;;;;;5090945;28;20002;-69
2023/12/31 07:52:15;;;;;;;;;;;;;;;;;;5091198;28;20309;-70
2023/12/31 07:54:40;;;;;;;;;;;;;;;;;;5089657;28;19928;-69
2023/12/31 07:57:06;;;;;;;;;;;;;;;;;;5088087;28;20301;-70
2023/12/31 07:59:32;;;;;;;;;;;;;;;;;;5088963;28;19926;-69
2023/12/31 08:02:00;;;;;;;;;;;;;;;;;;5080848;28;19920;-69
2023/12/31 08:04:25;;;;;;;;;;;;;;;;;;5088715;28;19924;-69
2023/12/31 08:06:51;;;;;;;;;;;;;;;;;;5091275;28;20372;-70
2023/12/31 08:09:17;;;;;;;;;;;;;;;;;;5090469;28;19924;-69
2023/12/31 08:11:43;;;;;;;;;;;;;;;;;;5090725;28;19935;-70
2023/12/31 08:14:09;;;;;;;;;;;;;;;;;;5088994;28;19924;-69
2023/12/31 08:16:35;;;;;;;;;;;;;;;;;;5086558;28;19946;-71
2023/12/31 08:19:03;;;;;;;;;;;;;;;;;;5084429;28;20612;-70
2023/12/31 08:21:28;;;;;;;;;;;;;;;;;;5092269;28;20303;-70
2023/12/31 08:23:54;;;;;;;;;;;;;;;;;;5075937;28;19927;-70
2023/12/31 08:26:20;;;;;;;;;;;;;;;;;;5138419;22;19976;-66
2023/12/31 08:28:46;;;;;;;;;;;;;;;;;;5110967;27;19924;-67
2023/12/31 08:31:12;;;;;;;;;;;;;;;;;;5112841;27;19920;-66
2023/12/31 08:33:38;;;;;;;;;;;;;;;;;;5110513;28;19920;-66
2023/12/31 08:36:04;;;;;;;;;;;;;;;;;;5114027;28;20414;-66
2023/12/31 08:38:30;;;;;;;;;;;;;;;;;;5106013;28;20023;-66
2023/12/31 08:40:56;;;;;;;;;;;;;;;;;;5105422;28;19948;-66
2023/12/31 08:43:22;;;;;;;;;;;;;;;;;;5111682;28;19919;-65
2023/12/31 08:45:47;;;;;;;;;;;;;;;;;;5109928;28;19931;-65
2023/12/31 08:48:13;;;;;;;;;;;;;;;;;;5106271;27;20293;-66
2023/12/31 08:50:39;;;;;;;;;;;;;;;;;;5110325;28;19943;-65
2023/12/31 08:53:05;;;;;;;;;;;;;;;;;;5112091;28;19920;-66
2023/12/31 08:55:31;;;;;;;;;;;;;;;;;;5108249;28;19923;-66
2023/12/31 08:57:57;;;;;;;;;;;;;;;;;;5109470;28;19942;-66
2023/12/31 09:00:23;;;;;;;;;;;;;;;;;;5111284;27;19927;-66
2023/12/31 09:02:49;;;;;;;;;;;;;;;;;;5110901;28;20272;-66
2023/12/31 09:05:15;;;;;;;;;;;;;;;;;;5102011;28;19927;-66
2023/12/31 09:07:41;;;;;;;;;;;;;;;;;;5107424;28;19928;-66
2023/12/31 09:10:07;;;;;;;;;;;;;;;;;;5113630;28;19924;-66
2023/12/31 09:12:33;;;;;;;;;;;;;;;;;;5109540;28;19928;-67
2023/12/31 09:14:59;;;;;;;;;;;;;;;;;;5114427;28;19923;-67
2023/12/31 09:17:25;;;;;;;;;;;;;;;;;;5111114;28;19927;-67
2023/12/31 09:19:51;;;;;;;;;;;;;;;;;;5107736;28;19920;-67
2023/12/31 09:22:17;;;;;;;;;;;;;;;;;;5113151;28;20002;-67
2023/12/31 09:24:43;;;;;;;;;;;;;;;;;;5110377;28;19958;-67
2023/12/31 09:27:09;;;;;;;;;;;;;;;;;;5105362;28;19942;-66
2023/12/31 09:29:35;;;;;;;;;;;;;;;;;;5107948;27;19924;-66
2023/12/31 09:32:02;;;;;;;;;;;;;;;;;;5106230;28;20050;-72
2023/12/31 09:34:28;;;;;;;;;;;;;;;;;;5103368;27;20315;-72
2023/12/31 09:36:54;;;;;;;;;;;;;;;;;;5110273;28;19930;-72
2023/12/31 09:39:20;;;;;;;;;;;;;;;;;;5100895;28;19927;-72
2023/12/31 09:41:46;;;;;;;;;;;;;;;;;;5103036;28;19959;-71
2023/12/31 09:44:12;;;;;;;;;;;;;;;;;;5108073;28;20369;-71
2023/12/31 09:46:37;;;;;;;;;;;;;;;;;;5109707;28;19928;-70
2023/12/31 09:49:03;;;;;;;;;;;;;;;;;;5108381;27;19938;-70
2023/12/31 09:51:29;;;;;;;;;;;;;;;;;;5107896;27;19927;-71
2023/12/31 09:53:55;;;;;;;;;;;;;;;;;;5107039;28;19950;-71
2023/12/31 09:56:21;;;;;;;;;;;;;;;;;;5107151;27;20436;-71
2023/12/31 09:58:48;;;;;;;;;;;;;;;;;;5094104;28;19931;-70
2023/12/31 10:01:14;;;;;;;;;;;;;;;;;;5103367;28;19924;-71
2023/12/31 10:03:40;;;;;;;;;;;;;;;;;;5084145;28;19934;-71
2023/12/31 10:06:06;;;;;;;;;;;;;;;;;;5108927;28;19920;-69
2023/12/31 10:08:32;;;;;;;;;;;;;;;;;;5109639;28;19920;-70
2023/12/31 10:10:58;;;;;;;;;;;;;;;;;;5099806;28;19923;-70
2023/12/31 10:13:26;;;;;;;;;;;;;;;;;;5100825;28;19934;-70
2023/12/31 10:15:52;;;;;;;;;;;;;;;;;;5105936;28;19985;-70
2023/12/31 10:18:18;;;;;;;;;;;;;;;;;;5101373;28;20422;-70
2023/12/31 10:20:44;;;;;;;;;;;;;;;;;;5103889;28;20028;-69
2023/12/31 10:23:10;;;;;;;;;;;;;;;;;;5106452;28;19981;-70
2023/12/31 10:25:36;;;;;;;;;;;;;;;;;;5099111;28;19928;-70
2023/12/31 10:28:02;;;;;;;;;;;;;;;;;;5109216;28;19927;-70
2023/12/31 10:30:28;;;;;;;;;;;;;;;;;;5105597;27;20015;-70
2023/12/31 10:32:54;;;;;;;;;;;;;;;;;;5104665;28;19949;-70
2023/12/31 10:35:20;;;;;;;;;;;;;;;;;;5105531;28;19924;-70
2023/12/31 10:37:46;;;;;;;;;;;;;;;;;;5106272;28;19920;-70
2023/12/31 10:40:12;;;;;;;;;;;;;;;;;;5099803;28;20026;-71
2023/12/31 10:42:38;;;;;;;;;;;;;;;;;;5111032;28;19954;-70
2023/12/31 10:45:04;;;;;;;;;;;;;;;;;;5113381;28;19942;-70
2023/12/31 10:47:29;;;;;;;;;;;;;;;;;;5108778;28;20377;-70
2023/12/31 10:49:55;;;;;;;;;;;;;;;;;;5106644;28;19935;-70
2023/12/31 10:52:21;;;;;;;;;;;;;;;;;;5110426;28;19923;-71
2023/12/31 10:54:47;;;;;;;;;;;;;;;;;;5107166;28;19919;-71
2023/12/31 10:57:13;;;;;;;;;;;;;;;;;;5105063;28;19957;-72
2023/12/31 10:59:39;;;;;;;;;;;;;;;;;;5111096;28;20023;-72
2023/12/31 11:02:05;;;;;;;;;;;;;;;;;;5107080;28;20026;-71
2023/12/31 11:04:31;;;;;;;;;;;;;;;;;;5108046;28;20421;-71
2023/12/31 11:06:57;;;;;;;;;;;;;;;;;;5105906;28;19924;-71
2023/12/31 11:09:23;;;;;;;;;;;;;;;;;;5105505;28;19934;-72
2023/12/31 11:11:49;;;;;;;;;;;;;;;;;;5090271;28;20593;-71
2023/12/31 11:14:15;;;;;;;;;;;;;;;;;;5107070;28;19950;-71
2023/12/31 11:16:41;;;;;;;;;;;;;;;;;;5105565;27;20245;-71
2023/12/31 11:19:07;;;;;;;;;;;;;;;;;;5105749;28;19923;-71
2023/12/31 11:21:34;;;;;;;;;;;;;;;;;;5104995;28;19926;-72
2023/12/31 11:24:00;;;;;;;;;;;;;;;;;;5109344;28;20011;-71
2023/12/31 11:26:28;;;;;;;;;;;;;;;;;;5111732;28;20022;-72
2023/12/31 11:28:54;;;;;;;;;;;;;;;;;;5104605;28;20015;-72
2023/12/31 11:31:20;;;;;;;;;;;;;;;;;;5107037;28;20023;-72
2023/12/31 11:33:47;;;;;;;;;;;;;;;;;;5106543;28;20010;-73
2023/12/31 11:36:13;;;;;;;;;;;;;;;;;;5105774;28;19924;-72
2023/12/31 11:38:38;;;;;;;;;;;;;;;;;;5102084;28;19955;-72
2023/12/31 11:41:04;;;;;;;;;;;;;;;;;;5080175;28;19955;-72
2023/12/31 11:43:30;;;;;;;;;;;;;;;;;;5105977;28;20022;-73
2023/12/31 11:45:56;;;;;;;;;;;;;;;;;;5102216;28;19928;-72
2023/12/31 11:48:23;;;;;;;;;;;;;;;;;;5102278;28;20380;-72
2023/12/31 11:50:49;;;;;;;;;;;;;;;;;;5108582;28;20383;-72
2023/12/31 11:53:15;;;;;;;;;;;;;;;;;;5098290;28;19920;-72
2023/12/31 11:55:42;;;;;;;;;;;;;;;;;;5102016;28;19943;-72
2023/12/31 11:58:08;;;;;;;;;;;;;;;;;;5091471;28;20605;-72
2023/12/31 12:00:34;;;;;;;;;;;;;;;;;;5104227;28;19928;-72
2023/12/31 12:03:00;;;;;;;;;;;;;;;;;;5105977;28;19928;-72
2023/12/31 12:05:26;;;;;;;;;;;;;;;;;;5105814;28;19920;-71
2023/12/31 12:07:52;;;;;;;;;;;;;;;;;;5107773;28;19927;-71
2023/12/31 12:10:18;;;;;;;;;;;;;;;;;;5106776;28;19938;-72
2023/12/31 12:12:44;;;;;;;;;;;;;;;;;;5107600;28;19931;-72
2023/12/31 12:15:10;;;;;;;;;;;;;;;;;;5112268;27;19932;-72
2023/12/31 12:17:36;;;;;;;;;;;;;;;;;;5115729;27;19931;-72
2023/12/31 12:20:04;;;;;;;;;;;;;;;;;;5111184;27;19948;-72
2023/12/31 12:22:30;;;;;;;;;;;;;;;;;;5104476;28;19924;-72
2023/12/31 12:24:56;;;;;;;;;;;;;;;;;;5107131;27;19927;-73
2023/12/31 12:27:22;;;;;;;;;;;;;;;;;;5108208;27;20369;-73
2023/12/31 12:29:48;;;;;;;;;;;;;;;;;;5108656;28;19924;-73
2023/12/31 12:32:14;;;;;;;;;;;;;;;;;;5113550;28;19931;-72
2023/12/31 12:34:40;;;;;;;;;;;;;;;;;;5114969;28;19934;-71
2023/12/31 12:37:06;;;;;;;;;;;;;;;;;;5113717;27;19994;-73
2023/12/31 12:39:32;;;;;;;;;;;;;;;;;;5111507;28;19974;-72
2023/12/31 12:41:58;;;;;;;;;;;;;;;;;;5110608;28;19928;-72
2023/12/31 12:44:24;;;;;;;;;;;;;;;;;;5095921;28;20369;-71
2023/12/31 12:46:50;;;;;;;;;;;;;;;;;;5112882;28;19946;-71
2023/12/31 12:49:17;;;;;;;;;;;;;;;;;;5112361;28;19927;-71
2023/12/31 12:51:43;;;;;;;;;;;;;;;;;;5113440;28;19919;-72
2023/12/31 12:54:09;;;;;;;;;;;;;;;;;;5114586;28;19942;-72
2023/12/31 12:56:36;;;;;;;;;;;;;;;;;;5110040;28;20436;-72
2023/12/31 12:59:03;;;;;;;;;;;;;;;;;;5114071;27;19920;-71
2023/12/31 13:01:29;;;;;;;;;;;;;;;;;;5109662;28;19924;-71
2023/12/31 13:03:55;;;;;;;;;;;;;;;;;;5109469;28;19919;-71
2023/12/31 13:06:21;;;;;;;;;;;;;;;;;;5112824;28;20049;-72
2023/12/31 13:08:47;;;;;;;;;;;;;;;;;;5113969;28;20010;-71
2023/12/31 13:11:13;;;;;;;;;;;;;;;;;;5109952;28;19927;-71
2023/12/31 13:13:39;;;;;;;;;;;;;;;;;;5109382;28;19934;-72
2023/12/31 13:16:04;;;;;;;;;;;;;;;;;;5111969;28;20265;-73
2023/12/31 13:18:30;;;;;;;;;;;;;;;;;;5110468;28;20381;-72
2023/12/31 13:20:56;;;;;;;;;;;;;;;;;;5111587;28;19926;-72
2023/12/31 13:23:22;;;;;;;;;;;;;;;;;;5105765;28;19924;-72
2023/12/31 13:25:49;;;;;;;;;;;;;;;;;;5106229;28;19935;-72
2023/12/31 13:28:15;;;;;;;;;;;;;;;;;;5111980;27;20379;-72
2023/12/31 13:30:41;;;;;;;;;;;;;;;;;;5095420;28;19930;-72
2023/12/31 13:33:07;;;;;;;;;;;;;;;;;;5107946;28;19923;-72
2023/12/31 13:35:33;;;;;;;;;;;;;;;;;;5112069;28;20322;-72
2023/12/31 13:37:59;;;;;;;;;;;;;;;;;;5108819;28;19958;-72
2023/12/31 13:40:25;;;;;;;;;;;;;;;;;;5108515;28;22330;-72
2023/12/31 13:42:52;;;;;;;;;;;;;;;;;;5111205;28;19975;-72
2023/12/31 13:45:18;;;;;;;;;;;;;;;;;;5112810;28;19920;-72
2023/12/31 13:47:44;;;;;;;;;;;;;;;;;;5111812;28;19934;-72
2023/12/31 13:50:10;;;;;;;;;;;;;;;;;;5097974;28;19932;-72
2023/12/31 13:52:36;;;;;;;;;;;;;;;;;;5103660;28;19988;-72
2023/12/31 13:55:02;;;;;;;;;;;;;;;;;;5106497;28;19924;-72
2023/12/31 13:57:28;;;;;;;;;;;;;;;;;;5103627;28;19927;-72
2023/12/31 13:59:54;;;;;;;;;;;;;;;;;;5106656;28;20471;-72
2023/12/31 14:02:20;;;;;;;;;;;;;;;;;;5091056;28;19930;-72
2023/12/31 14:04:46;;;;;;;;;;;;;;;;;;5106644;28;19924;-72
2023/12/31 14:07:12;;;;;;;;;;;;;;;;;;5112100;28;20396;-72
2023/12/31 14:09:38;;;;;;;;;;;;;;;;;;5109639;28;19981;-70
2023/12/31 14:12:04;;;;;;;;;;;;;;;;;;5102280;28;19919;-71
2023/12/31 14:14:30;;;;;;;;;;;;;;;;;;5098259;28;20129;-72
2023/12/31 14:16:56;;;;;;;;;;;;;;;;;;5103657;28;20433;-71
2023/12/31 14:19:22;;;;;;;;;;;;;;;;;;5110446;28;19920;-71
2023/12/31 14:21:48;;;;;;;;;;;;;;;;;;5103826;28;19921;-71
2023/12/31 14:24:14;;;;;;;;;;;;;;;;;;5105281;28;19923;-71
2023/12/31 14:26:40;;;;;;;;;;;;;;;;;;5106649;28;19932;-71
2023/12/31 14:29:06;;;;;;;;;;;;;;;;;;5106295;28;19931;-72
2023/12/31 14:31:32;;;;;;;;;;;;;;;;;;5100947;28;19920;-72
2023/12/31 14:33:57;;;;;;;;;;;;;;;;;;5107959;28;19924;-72
2023/12/31 14:36:23;;;;;;;;;;;;;;;;;;5106416;28;19923;-71
2023/12/31 14:38:49;;;;;;;;;;;;;;;;;;5108199;28;19928;-71
2023/12/31 14:41:15;;;;;;;;;;;;;;;;;;5107053;28;19923;-72
2023/12/31 14:43:41;;;;;;;;;;;;;;;;;;5104040;27;20289;-72
2023/12/31 14:46:07;;;;;;;;;;;;;;;;;;5101391;28;19924;-72
2023/12/31 14:48:33;;;;;;;;;;;;;;;;;;5106660;28;19920;-72
2023/12/31 14:50:59;;;;;;;;;;;;;;;;;;5101924;28;19926;-73
2023/12/31 14:53:25;;;;;;;;;;;;;;;;;;5107411;28;19930;-73
2023/12/31 14:55:51;;;;;;;;;;;;;;;;;;5102846;28;20113;-72
2023/12/31 14:58:16;;;;;;;;;;;;;;;;;;5107237;28;20464;-72
2023/12/31 15:00:43;;;;;;;;;;;;;;;;;;5103444;27;19924;-72
2023/12/31 15:03:09;;;;;;;;;;;;;;;;;;5099009;28;20047;-72
2023/12/31 15:05:36;;;;;;;;;;;;;;;;;;5104969;28;19931;-72
2023/12/31 15:08:03;;;;;;;;;;;;;;;;;;5102033;28;20019;-72
2023/12/31 15:10:29;;;;;;;;;;;;;;;;;;5104447;28;19928;-72
2023/12/31 15:12:55;;;;;;;;;;;;;;;;;;5099988;28;19949;-72
2023/12/31 15:15:21;;;;;;;;;;;;;;;;;;5096011;28;19924;-72
2023/12/31 15:17:47;;;;;;;;;;;;;;;;;;5100422;28;19924;-72
2023/12/31 15:20:16;;;;;;;;;;;;;;;;;;5092578;28;19954;-71
2023/12/31 15:22:42;;;;;;;;;;;;;;;;;;5099532;28;20382;-71
2023/12/31 15:25:08;;;;;;;;;;;;;;;;;;5103644;28;19924;-72
2023/12/31 15:27:34;;;;;;;;;;;;;;;;;;5106251;28;19981;-72
2023/12/31 15:30:05;;;;;;;;;;;;;;;;;;5108030;28;20392;-72
2023/12/31 15:32:32;;;;;;;;;;;;;;;;;;5107873;28;19965;-72
2023/12/31 15:34:58;;;;;;;;;;;;;;;;;;5098019;28;20002;-72
2023/12/31 15:37:24;;;;;;;;;;;;;;;;;;5096572;28;20011;-71
2023/12/31 15:39:51;;;;;;;;;;;;;;;;;;5107424;28;19927;-71
2023/12/31 15:42:17;;;;;;;;;;;;;;;;;;5104571;28;19924;-71
2023/12/31 15:44:44;;;;;;;;;;;;;;;;;;5108079;28;19931;-71
2023/12/31 15:47:10;;;;;;;;;;;;;;;;;;5102572;28;20022;-71
2023/12/31 15:49:36;;;;;;;;;;;;;;;;;;5108526;28;20014;-72
2023/12/31 15:52:03;;;;;;;;;;;;;;;;;;5100777;28;20014;-71
2023/12/31 15:54:31;;;;;;;;;;;;;;;;;;5104289;28;19923;-71
2023/12/31 15:56:57;;;;;;;;;;;;;;;;;;5100201;28;19920;-71
2023/12/31 15:59:23;;;;;;;;;;;;;;;;;;5101276;28;19969;-71
2023/12/31 16:01:48;;;;;;;;;;;;;;;;;;5104916;28;19976;-71
2023/12/31 16:04:14;;;;;;;;;;;;;;;;;;5105689;28;20369;-71
2023/12/31 16:06:41;;;;;;;;;;;;;;;;;;5101003;28;19996;-72
2023/12/31 16:09:08;;;;;;;;;;;;;;;;;;5098789;28;19963;-71
2023/12/31 16:11:34;;;;;;;;;;;;;;;;;;5102946;28;20064;-71
2023/12/31 16:14:00;;;;;;;;;;;;;;;;;;5105504;28;20405;-72
2023/12/31 16:16:26;;;;;;;;;;;;;;;;;;5101034;28;19927;-71
2023/12/31 16:18:52;;;;;;;;;;;;;;;;;;5099748;28;19920;-71
2023/12/31 16:21:18;;;;;;;;;;;;;;;;;;5099063;28;20554;-72
2023/12/31 16:23:44;;;;;;;;;;;;;;;;;;5102203;28;19924;-72
2023/12/31 16:26:10;;;;;;;;;;;;;;;;;;5082627;28;20031;-72
2023/12/31 16:28:35;;;;;;;;;;;;;;;;;;5074973;28;20080;-71
2023/12/31 16:31:03;;;;;;;;;;;;;;;;;;5102579;28;19924;-72
2023/12/31 16:33:29;;;;;;;;;;;;;;;;;;5101980;28;19931;-71
2023/12/31 16:35:55;;;;;;;;;;;;;;;;;;5100415;28;19920;-72
2023/12/31 16:38:21;;;;;;;;;;;;;;;;;;5100415;28;19936;-72